createdAt,value
2018-12-30T00:00:51.422Z,941.23
2018-12-30T00:03:21.700Z,686.73
2018-12-30T00:05:52.281Z,739.30
2018-12-30T00:08:22.861Z,1023.63
2018-12-30T00:10:53.556Z,1507.80
2018-12-30T00:13:24.200Z,1154.23
2018-12-30T00:15:54.441Z,269.67
2018-12-30T00:18:24.688Z,618.43
2018-12-30T00:20:54.937Z,378.07
2018-12-30T00:23:25.208Z,1048.43
2018-12-30T00:25:55.481Z,984.67
2018-12-30T00:28:25.711Z,363.73
2018-12-30T00:30:55.918Z,957.57
2018-12-30T00:33:26.254Z,686.13
2018-12-30T00:35:56.512Z,380.80
2018-12-30T00:38:26.682Z,211.93
2018-12-30T00:40:57.097Z,718.93
2018-12-30T00:43:27.366Z,501.60
2018-12-30T00:45:57.590Z,348.70
2018-12-30T00:48:27.838Z,667.17
2018-12-30T00:50:57.997Z,746.83
2018-12-30T00:53:28.249Z,557.63
2018-12-30T00:55:58.510Z,564.30
2018-12-30T00:58:28.769Z,404.63
2018-12-30T01:00:59.027Z,198.60
2018-12-30T01:03:29.302Z,562.93
2018-12-30T01:05:59.711Z,676.27
2018-12-30T01:08:29.968Z,558.27
2018-12-30T01:11:00.293Z,584.13
2018-12-30T01:13:30.654Z,517.83
2018-12-30T01:16:00.647Z,673.80
2018-12-30T01:18:30.920Z,843.23
2018-12-30T01:21:01.197Z,605.50
2018-12-30T01:23:31.435Z,612.30
2018-12-30T01:26:01.658Z,845.80
2018-12-30T01:28:31.906Z,490.70
2018-12-30T01:31:02.200Z,483.87
2018-12-30T01:33:32.488Z,558.27
2018-12-30T01:36:02.705Z,626.83
2018-12-30T01:38:32.928Z,682.07
2018-12-30T01:41:03.257Z,771.20
2018-12-30T01:43:33.473Z,855.43
2018-12-30T01:46:03.704Z,740.83
2018-12-30T01:48:34.362Z,573.50
2018-12-30T01:51:04.576Z,672.10
2018-12-30T01:53:34.810Z,795.93
2018-12-30T01:56:05.034Z,904.77
2018-12-30T01:58:35.337Z,1065.10
2018-12-30T02:01:05.822Z,1028.77
2018-12-30T02:03:36.148Z,1158.47
2018-12-30T02:06:06.410Z,1045.90
2018-12-30T02:08:36.620Z,855.03
2018-12-30T02:11:06.883Z,1008.03
2018-12-30T02:13:37.195Z,1022.63
2018-12-30T02:16:07.577Z,968.00
2018-12-30T02:18:37.862Z,872.20
2018-12-30T02:21:08.147Z,1083.00
2018-12-30T02:23:38.734Z,960.17
2018-12-30T02:26:09.074Z,1118.40
2018-12-30T02:28:39.340Z,1080.07
2018-12-30T02:31:09.796Z,1066.57
2018-12-30T02:33:40.089Z,1014.00
2018-12-30T02:36:10.395Z,1005.07
2018-12-30T02:38:40.640Z,822.60
2018-12-30T02:41:10.906Z,868.80
2018-12-30T02:43:41.121Z,792.43
2018-12-30T02:46:11.694Z,1234.53
2018-12-30T02:48:41.938Z,880.13
2018-12-30T02:51:12.236Z,660.13
2018-12-30T02:53:42.605Z,1012.33
2018-12-30T02:56:12.845Z,941.07
2018-12-30T02:58:43.104Z,968.30
2018-12-30T03:01:13.336Z,882.33
2018-12-30T03:03:43.796Z,933.53
2018-12-30T03:06:15.207Z,844.77
2018-12-30T03:08:45.794Z,630.93
2018-12-30T03:11:16.168Z,565.80
2018-12-30T03:13:46.630Z,564.73
2018-12-30T03:16:16.838Z,520.10
2018-12-30T03:18:47.174Z,326.60
2018-12-30T03:21:17.470Z,297.03
2018-12-30T03:23:47.922Z,229.93
2018-12-30T03:26:18.167Z,207.13
2018-12-30T03:28:48.469Z,222.23
2018-12-30T03:31:18.816Z,240.90
2018-12-30T03:33:49.093Z,278.87
2018-12-30T03:36:19.268Z,304.10
2018-12-30T03:38:49.531Z,432.90
2018-12-30T03:41:19.756Z,703.57
2018-12-30T03:43:49.961Z,708.60
2018-12-30T03:46:20.207Z,700.03
2018-12-30T03:48:50.517Z,542.83
2018-12-30T03:51:20.731Z,550.53
2018-12-30T03:53:50.973Z,686.50
2018-12-30T03:56:21.255Z,643.40
2018-12-30T03:58:51.495Z,608.30
2018-12-30T04:01:21.783Z,539.77
2018-12-30T04:03:51.997Z,335.50
2018-12-30T04:06:22.234Z,215.00
2018-12-30T04:08:52.533Z,200.67
2018-12-30T04:11:22.817Z,203.97
2018-12-30T04:13:53.270Z,186.97
2018-12-30T04:16:23.586Z,176.43
2018-12-30T04:18:53.870Z,156.33
2018-12-30T04:21:24.110Z,159.87
2018-12-30T04:23:54.355Z,142.50
2018-12-30T04:26:24.616Z,133.67
2018-12-30T04:28:54.885Z,137.50
2018-12-30T04:31:25.313Z,134.30
2018-12-30T04:33:55.629Z,132.47
2018-12-30T04:36:26.101Z,135.87
2018-12-30T04:38:56.369Z,143.07
2018-12-30T04:41:26.587Z,138.37
2018-12-30T04:43:56.832Z,128.97
2018-12-30T04:46:27.173Z,142.80
2018-12-30T04:48:57.445Z,155.23
2018-12-30T04:51:28.194Z,136.93
2018-12-30T04:53:58.446Z,142.27
2018-12-30T04:56:28.739Z,140.27
2018-12-30T04:58:58.965Z,151.97
2018-12-30T05:01:29.221Z,142.03
2018-12-30T05:03:59.476Z,164.03
2018-12-30T05:06:29.631Z,146.57
2018-12-30T05:08:59.858Z,154.27
2018-12-30T05:11:30.160Z,143.83
2018-12-30T05:14:00.486Z,155.33
2018-12-30T05:16:30.792Z,151.20
2018-12-30T05:19:01.015Z,153.00
2018-12-30T05:21:31.226Z,157.73
2018-12-30T05:24:01.545Z,147.33
2018-12-30T05:26:31.794Z,150.63
2018-12-30T05:29:02.018Z,147.40
2018-12-30T05:31:32.266Z,146.17
2018-12-30T05:34:02.701Z,148.30
2018-12-30T05:36:32.988Z,150.40
2018-12-30T05:39:04.100Z,162.50
2018-12-30T05:41:34.369Z,154.33
2018-12-30T05:44:04.579Z,148.13
2018-12-30T05:46:35.045Z,147.67
2018-12-30T05:49:05.313Z,144.77
2018-12-30T05:51:35.563Z,146.07
2018-12-30T05:54:06.007Z,146.70
2018-12-30T05:56:36.294Z,152.20
2018-12-30T05:59:06.513Z,150.07
2018-12-30T06:01:36.874Z,143.43
2018-12-30T06:04:07.162Z,143.43
2018-12-30T06:06:37.401Z,146.47
2018-12-30T06:09:08.373Z,150.40
2018-12-30T06:11:38.671Z,149.47
2018-12-30T06:14:08.981Z,136.40
2018-12-30T06:16:39.323Z,131.70
2018-12-30T06:19:09.633Z,127.87
2018-12-30T06:21:39.841Z,133.20
2018-12-30T06:24:10.209Z,139.83
2018-12-30T06:26:40.493Z,131.20
2018-12-30T06:29:11.094Z,144.33
2018-12-30T06:31:41.397Z,144.00
2018-12-30T06:34:11.664Z,135.87
2018-12-30T06:36:42.054Z,141.07
2018-12-30T06:39:12.529Z,135.57
2018-12-30T06:41:42.710Z,134.70
2018-12-30T06:44:12.970Z,138.57
2018-12-30T06:46:43.243Z,139.90
2018-12-30T06:49:13.470Z,141.30
2018-12-30T06:51:43.722Z,122.80
2018-12-30T06:54:14.001Z,132.83
2018-12-30T06:56:44.372Z,137.60
2018-12-30T06:59:14.565Z,110.03
2018-12-30T07:01:44.885Z,120.60
2018-12-30T07:04:15.157Z,117.80
2018-12-30T07:06:45.348Z,118.63
2018-12-30T07:09:15.508Z,144.73
2018-12-30T07:11:45.802Z,185.47
2018-12-30T07:14:16.127Z,261.63
2018-12-30T07:16:46.361Z,307.90
2018-12-30T07:19:16.544Z,306.87
2018-12-30T07:21:46.686Z,304.07
2018-12-30T07:24:16.948Z,352.70
2018-12-30T07:26:47.381Z,442.17
2018-12-30T07:29:17.622Z,366.13
2018-12-30T07:31:47.933Z,365.23
2018-12-30T07:34:18.228Z,341.73
2018-12-30T07:36:48.777Z,345.10
2018-12-30T07:39:19.094Z,284.13
2018-12-30T07:41:49.358Z,294.97
2018-12-30T07:44:19.621Z,231.30
2018-12-30T07:46:49.998Z,209.03
2018-12-30T07:49:20.254Z,182.40
2018-12-30T07:51:50.485Z,159.07
2018-12-30T07:54:20.850Z,152.53
2018-12-30T07:56:51.097Z,149.53
2018-12-30T07:59:21.419Z,129.20
2018-12-30T08:01:51.730Z,122.90
2018-12-30T08:04:22.005Z,115.20
2018-12-30T08:06:52.269Z,108.00
2018-12-30T08:09:22.554Z,112.60
2018-12-30T08:11:52.849Z,112.40
2018-12-30T08:14:23.079Z,104.70
2018-12-30T08:16:53.547Z,101.67
2018-12-30T08:19:26.594Z,110.33
2018-12-30T08:21:56.870Z,105.57
2018-12-30T08:24:27.139Z,99.90
2018-12-30T08:26:57.338Z,100.87
2018-12-30T08:29:27.622Z,98.20
2018-12-30T08:31:57.920Z,97.73
2018-12-30T08:34:28.248Z,98.50
2018-12-30T08:36:58.579Z,101.03
2018-12-30T08:39:28.873Z,97.33
2018-12-30T08:41:59.041Z,99.67
2018-12-30T08:44:29.398Z,97.73
2018-12-30T08:46:59.509Z,97.23
2018-12-30T08:49:29.714Z,104.50
2018-12-30T08:52:00.027Z,103.63
2018-12-30T08:54:30.197Z,98.03
2018-12-30T08:57:00.468Z,93.87
2018-12-30T08:59:30.829Z,88.30
2018-12-30T09:02:01.097Z,87.43
2018-12-30T09:04:31.394Z,87.20
2018-12-30T09:07:01.662Z,80.90
2018-12-30T09:09:31.937Z,77.73
2018-12-30T09:12:02.154Z,84.53
2018-12-30T09:14:32.517Z,71.03
2018-12-30T09:17:02.845Z,79.13
2018-12-30T09:19:35.528Z,80.53
2018-12-30T09:22:06.162Z,73.63
2018-12-30T09:24:36.601Z,73.33
2018-12-30T09:27:06.826Z,69.17
2018-12-30T09:29:37.160Z,66.03
2018-12-30T09:32:07.389Z,59.57
2018-12-30T09:34:37.609Z,49.63
2018-12-30T09:37:07.885Z,46.73
2018-12-30T09:39:38.189Z,47.50
2018-12-30T09:42:08.520Z,45.97
2018-12-30T09:44:39.055Z,42.43
2018-12-30T09:47:09.360Z,42.13
2018-12-30T09:49:39.588Z,41.13
2018-12-30T09:52:10.171Z,40.20
2018-12-30T09:54:43.424Z,37.93
2018-12-30T09:57:16.181Z,36.73
2018-12-30T09:59:48.378Z,38.70
2018-12-30T10:02:20.221Z,36.47
2018-12-30T10:04:51.709Z,34.50
2018-12-30T10:07:22.332Z,38.33
2018-12-30T10:09:53.164Z,36.30
2018-12-30T10:12:24.663Z,34.13
2018-12-30T10:14:55.041Z,32.57
2018-12-30T10:17:25.348Z,32.03
2018-12-30T10:19:55.898Z,28.07
2018-12-30T10:22:26.174Z,25.47
2018-12-30T10:24:56.672Z,25.33
2018-12-30T10:27:27.722Z,26.60
2018-12-30T10:29:57.957Z,26.90
2018-12-30T10:32:32.402Z,26.30
2018-12-30T10:35:02.586Z,24.80
2018-12-30T10:37:32.838Z,25.23
2018-12-30T10:40:04.485Z,26.03
2018-12-30T10:42:34.774Z,25.83
2018-12-30T10:45:06.096Z,24.30
2018-12-30T10:47:37.131Z,24.03
2018-12-30T10:50:08.037Z,24.63
2018-12-30T10:52:38.247Z,25.87
2018-12-30T10:55:09.167Z,26.83
2018-12-30T10:57:39.554Z,20.77
2018-12-30T11:00:09.903Z,20.77
2018-12-30T11:02:40.210Z,21.90
2018-12-30T11:05:10.593Z,20.10
2018-12-30T11:07:40.925Z,20.90
2018-12-30T11:10:11.378Z,20.50
2018-12-30T11:12:41.622Z,22.70
2018-12-30T11:15:11.878Z,22.53
2018-12-30T11:17:42.158Z,23.57
2018-12-30T11:20:12.569Z,22.37
2018-12-30T11:22:42.845Z,24.87
2018-12-30T11:25:13.138Z,24.90
2018-12-30T11:27:43.395Z,24.43
2018-12-30T11:30:13.570Z,25.80
2018-12-30T11:32:46.056Z,25.33
2018-12-30T11:35:16.588Z,26.00
2018-12-30T11:37:47.586Z,25.70
2018-12-30T11:40:18.034Z,25.17
2018-12-30T11:42:48.264Z,23.83
2018-12-30T11:45:19.762Z,23.43
2018-12-30T11:47:50.238Z,27.17
2018-12-30T11:50:20.465Z,25.03
2018-12-30T11:52:51.033Z,24.10
2018-12-30T11:55:22.439Z,27.80
2018-12-30T11:57:52.691Z,24.93
2018-12-30T12:00:22.914Z,24.30
2018-12-30T12:02:53.228Z,23.10
2018-12-30T12:05:23.525Z,23.30
2018-12-30T12:07:53.763Z,23.47
2018-12-30T12:10:24.182Z,24.67
2018-12-30T12:12:54.434Z,23.33
2018-12-30T12:15:27.321Z,22.93
2018-12-30T12:17:57.598Z,23.83
2018-12-30T12:20:27.865Z,23.83
2018-12-30T12:22:58.235Z,24.80
2018-12-30T12:25:28.535Z,23.27
2018-12-30T12:27:58.826Z,26.63
2018-12-30T12:30:29.076Z,22.47
2018-12-30T12:32:59.537Z,22.67
2018-12-30T12:35:30.058Z,23.57
2018-12-30T12:38:00.942Z,25.33
2018-12-30T12:40:31.319Z,22.83
2018-12-30T12:43:01.450Z,20.97
2018-12-30T12:45:31.731Z,17.43
2018-12-30T12:48:09.970Z,17.67
2018-12-30T12:50:40.397Z,17.40
2018-12-30T12:53:10.635Z,17.20
2018-12-30T12:55:41.051Z,16.50
2018-12-30T12:58:11.331Z,17.63
2018-12-30T13:00:41.556Z,17.67
2018-12-30T13:03:15.876Z,16.57
2018-12-30T13:05:46.190Z,16.00
2018-12-30T13:08:16.389Z,15.77
2018-12-30T13:10:46.644Z,15.30
2018-12-30T13:13:16.953Z,15.70
2018-12-30T13:15:47.185Z,14.43
2018-12-30T13:18:17.337Z,14.90
2018-12-30T13:20:47.630Z,14.83
2018-12-30T13:23:17.831Z,14.83
2018-12-30T13:25:48.126Z,14.47
2018-12-30T13:28:18.359Z,14.10
2018-12-30T13:30:48.567Z,16.90
2018-12-30T13:33:21.028Z,14.57
2018-12-30T13:35:51.397Z,14.00
2018-12-30T13:38:28.134Z,15.13
2018-12-30T13:40:53.642Z,13.40
2018-12-30T13:43:23.982Z,13.90
2018-12-30T13:45:54.242Z,14.77
2018-12-30T13:48:24.527Z,13.37
2018-12-30T13:50:54.766Z,13.70
2018-12-30T13:53:25.074Z,16.20
2018-12-30T13:55:55.374Z,11.57
2018-12-30T13:58:26.609Z,11.43
2018-12-30T14:00:56.840Z,10.40
2018-12-30T14:03:26.838Z,28.70
2018-12-30T14:05:56.968Z,30.63
2018-12-30T14:08:26.902Z,26.93
2018-12-30T14:10:56.866Z,25.67
2018-12-30T14:13:26.819Z,34.70
2018-12-30T14:15:56.826Z,39.87
2018-12-30T14:18:26.814Z,43.77
2018-12-30T14:20:56.868Z,65.37
2018-12-30T14:23:27.098Z,125.80
2018-12-30T14:25:57.399Z,58.50
2018-12-30T14:28:27.700Z,49.70
2018-12-30T14:30:57.970Z,51.77
2018-12-30T14:33:28.262Z,54.70
2018-12-30T14:35:58.556Z,53.93
2018-12-30T14:38:28.772Z,53.83
2018-12-30T14:40:59.043Z,57.97
2018-12-30T14:43:29.281Z,67.03
2018-12-30T14:45:59.538Z,70.53
2018-12-30T14:48:29.818Z,67.60
2018-12-30T14:51:00.638Z,73.67
2018-12-30T14:53:30.818Z,65.03
2018-12-30T14:56:01.089Z,63.30
2018-12-30T14:58:31.328Z,64.33
2018-12-30T15:01:01.593Z,62.37
2018-12-30T15:03:31.947Z,56.80
2018-12-30T15:06:02.198Z,56.40
2018-12-30T15:08:32.461Z,53.90
2018-12-30T15:11:03.322Z,49.57
2018-12-30T15:13:33.608Z,53.57
2018-12-30T15:16:03.898Z,53.40
2018-12-30T15:18:36.070Z,108.17
2018-12-30T15:21:09.584Z,97.57
2018-12-30T15:23:39.862Z,83.63
2018-12-30T15:26:10.157Z,88.90
2018-12-30T15:28:40.480Z,73.23
2018-12-30T15:31:10.749Z,70.27
2018-12-30T15:33:40.958Z,72.77
2018-12-30T15:36:11.249Z,67.53
2018-12-30T15:38:41.409Z,59.20
2018-12-30T15:41:11.644Z,62.63
2018-12-30T15:43:41.904Z,60.13
2018-12-30T15:46:12.297Z,58.57
2018-12-30T15:48:42.684Z,59.37
2018-12-30T15:51:12.938Z,71.77
2018-12-30T15:53:43.263Z,61.60
2018-12-30T15:56:17.820Z,59.53
2018-12-30T15:58:49.092Z,60.67
2018-12-30T16:01:19.816Z,65.53
2018-12-30T16:03:50.492Z,60.60
2018-12-30T16:06:22.475Z,73.23
2018-12-30T16:08:54.712Z,60.60
2018-12-30T16:11:25.578Z,64.03
2018-12-30T16:13:56.582Z,63.97
2018-12-30T16:16:27.771Z,58.10
2018-12-30T16:19:00.045Z,65.17
2018-12-30T16:21:30.345Z,77.57
2018-12-30T16:24:00.502Z,69.47
2018-12-30T16:26:30.853Z,70.37
2018-12-30T16:29:03.494Z,76.93
2018-12-30T16:31:33.712Z,65.67
2018-12-30T16:34:03.991Z,64.50
2018-12-30T16:36:35.104Z,65.43
2018-12-30T16:39:06.940Z,52.27
2018-12-30T16:41:37.687Z,53.50
2018-12-30T16:44:08.005Z,60.53
2018-12-30T16:46:38.309Z,59.07
2018-12-30T16:49:08.574Z,57.90
2018-12-30T16:51:38.757Z,57.43
2018-12-30T16:54:09.090Z,56.37
2018-12-30T16:56:39.268Z,59.73
2018-12-30T16:59:09.535Z,71.60
2018-12-30T17:01:39.859Z,59.17
2018-12-30T17:04:10.348Z,44.63
2018-12-30T17:06:40.632Z,57.10
2018-12-30T17:09:11.206Z,54.60
2018-12-30T17:11:41.620Z,45.60
2018-12-30T17:14:11.892Z,55.40
2018-12-30T17:16:42.184Z,48.00
2018-12-30T17:19:12.762Z,45.07
2018-12-30T17:21:43.103Z,68.53
2018-12-30T17:24:13.367Z,50.20
2018-12-30T17:26:43.651Z,51.17
2018-12-30T17:29:14.436Z,53.93
2018-12-30T17:31:45.765Z,50.70
2018-12-30T17:34:16.060Z,62.43
2018-12-30T17:36:46.314Z,64.13
2018-12-30T17:39:16.687Z,66.40
2018-12-30T17:41:47.013Z,66.17
2018-12-30T17:44:17.529Z,50.37
2018-12-30T17:46:47.825Z,53.10
2018-12-30T17:49:18.109Z,51.97
2018-12-30T17:51:48.329Z,70.87
2018-12-30T17:54:18.622Z,54.23
2018-12-30T17:56:48.953Z,48.73
2018-12-30T17:59:19.212Z,46.93
2018-12-30T18:01:49.416Z,50.30
2018-12-30T18:04:19.720Z,49.57
2018-12-30T18:06:50.000Z,50.07
2018-12-30T18:09:20.103Z,51.97
2018-12-30T18:11:50.362Z,58.70
2018-12-30T18:14:20.665Z,64.73
2018-12-30T18:16:50.952Z,68.50
2018-12-30T18:19:21.346Z,67.10
2018-12-30T18:21:51.623Z,63.47
2018-12-30T18:24:21.846Z,61.50
2018-12-30T18:26:52.232Z,84.97
2018-12-30T18:29:23.432Z,82.27
2018-12-30T18:31:53.749Z,61.43
2018-12-30T18:34:24.046Z,64.27
2018-12-30T18:36:54.261Z,77.03
2018-12-30T18:39:24.500Z,89.50
2018-12-30T18:41:54.792Z,87.67
2018-12-30T18:44:25.141Z,69.83
2018-12-30T18:46:55.520Z,70.87
2018-12-30T18:49:25.858Z,56.20
2018-12-30T18:51:56.073Z,66.87
2018-12-30T18:54:26.341Z,58.93
2018-12-30T18:56:56.813Z,65.83
2018-12-30T18:59:27.082Z,74.47
2018-12-30T19:01:57.280Z,67.97
2018-12-30T19:04:27.626Z,85.33
2018-12-30T19:06:57.856Z,59.70
2018-12-30T19:09:28.055Z,57.43
2018-12-30T19:11:58.319Z,56.70
2018-12-30T19:14:28.526Z,60.83
2018-12-30T19:16:58.890Z,50.87
2018-12-30T19:19:29.118Z,55.43
2018-12-30T19:21:59.406Z,51.97
2018-12-30T19:24:29.726Z,68.83
2018-12-30T19:27:00.009Z,64.93
2018-12-30T19:29:30.507Z,67.03
2018-12-30T19:32:00.777Z,68.50
2018-12-30T19:34:30.954Z,64.30
2018-12-30T19:37:01.241Z,62.70
2018-12-30T19:39:31.758Z,65.20
2018-12-30T19:42:02.125Z,68.00
2018-12-30T19:44:32.358Z,67.83
2018-12-30T19:47:02.645Z,87.57
2018-12-30T19:49:32.904Z,98.10
2018-12-30T19:52:03.136Z,105.90
2018-12-30T19:54:33.363Z,90.77
2018-12-30T19:57:03.689Z,96.73
2018-12-30T19:59:33.937Z,89.57
2018-12-30T20:02:04.144Z,98.27
2018-12-30T20:04:40.553Z,107.60
2018-12-30T20:07:06.331Z,80.23
2018-12-30T20:09:36.558Z,77.97
2018-12-30T20:12:06.956Z,80.60
2018-12-30T20:14:37.197Z,77.73
2018-12-30T20:17:07.399Z,72.80
2018-12-30T20:19:37.714Z,71.97
2018-12-30T20:22:07.986Z,62.53
2018-12-30T20:24:38.165Z,68.90
2018-12-30T20:27:08.388Z,69.43
2018-12-30T20:29:38.730Z,67.53
2018-12-30T20:32:08.958Z,49.13
2018-12-30T20:34:39.228Z,73.03
2018-12-30T20:37:09.489Z,78.37
2018-12-30T20:39:39.746Z,76.83
2018-12-30T20:42:09.993Z,76.53
2018-12-30T20:44:40.274Z,73.90
2018-12-30T20:47:10.499Z,90.80
2018-12-30T20:49:40.776Z,96.20
2018-12-30T20:52:10.992Z,78.90
2018-12-30T20:54:41.273Z,83.70
2018-12-30T20:57:11.435Z,54.47
2018-12-30T20:59:41.755Z,75.30
2018-12-30T21:02:11.895Z,75.40
2018-12-30T21:04:42.212Z,77.33
2018-12-30T21:07:12.467Z,91.27
2018-12-30T21:09:42.668Z,73.10
2018-12-30T21:12:14.605Z,61.33
2018-12-30T21:14:44.937Z,61.47
2018-12-30T21:17:15.189Z,81.67
2018-12-30T21:19:45.430Z,92.97
2018-12-30T21:22:15.649Z,85.87
2018-12-30T21:24:45.957Z,90.43
2018-12-30T21:27:16.250Z,98.07
2018-12-30T21:29:46.512Z,105.77
2018-12-30T21:32:16.669Z,91.10
2018-12-30T21:34:46.958Z,98.03
2018-12-30T21:37:17.181Z,93.43
2018-12-30T21:39:47.366Z,118.93
2018-12-30T21:42:17.660Z,92.20
2018-12-30T21:44:47.951Z,68.20
2018-12-30T21:47:19.377Z,71.77
2018-12-30T21:49:49.710Z,49.07
2018-12-30T21:52:20.021Z,60.53
2018-12-30T21:54:50.250Z,77.37
2018-12-30T21:57:20.439Z,101.17
2018-12-30T21:59:50.668Z,112.17
2018-12-30T22:02:20.883Z,111.00
2018-12-30T22:04:51.195Z,94.87
2018-12-30T22:07:21.435Z,95.83
2018-12-30T22:09:51.642Z,83.67
2018-12-30T22:12:21.951Z,83.73
2018-12-30T22:14:52.206Z,106.40
2018-12-30T22:17:22.521Z,84.20
2018-12-30T22:19:52.826Z,76.20
2018-12-30T22:22:23.521Z,88.73
2018-12-30T22:24:53.840Z,82.43
2018-12-30T22:27:24.298Z,67.90
2018-12-30T22:29:55.562Z,80.00
2018-12-30T22:32:25.834Z,97.03
2018-12-30T22:34:56.397Z,110.20
2018-12-30T22:37:26.679Z,107.77
2018-12-30T22:39:56.940Z,98.33
2018-12-30T22:42:32.567Z,94.27
2018-12-30T22:44:59.179Z,76.23
2018-12-30T22:47:29.382Z,82.23
2018-12-30T22:49:59.754Z,83.47
2018-12-30T22:52:30.068Z,63.73
2018-12-30T22:55:00.378Z,65.33
2018-12-30T22:57:30.847Z,82.40
2018-12-30T23:00:01.170Z,68.13
2018-12-30T23:02:31.646Z,74.00
2018-12-30T23:05:02.197Z,79.23
2018-12-30T23:07:32.405Z,89.57
2018-12-30T23:10:02.618Z,73.33
2018-12-30T23:12:32.888Z,78.07
2018-12-30T23:15:03.143Z,66.30
2018-12-30T23:17:33.385Z,62.70
2018-12-30T23:20:03.669Z,88.37
2018-12-30T23:22:33.948Z,70.63
2018-12-30T23:25:04.218Z,75.53
2018-12-30T23:27:34.631Z,78.23
2018-12-30T23:30:05.229Z,68.40
2018-12-30T23:32:35.848Z,72.13
2018-12-30T23:35:06.336Z,89.40
2018-12-30T23:37:36.482Z,79.83
2018-12-30T23:40:06.815Z,69.33
2018-12-30T23:42:37.081Z,67.43
2018-12-30T23:45:07.530Z,65.97
2018-12-30T23:47:37.931Z,64.23
2018-12-30T23:50:08.247Z,66.80
2018-12-30T23:52:38.522Z,81.07
2018-12-30T23:55:08.754Z,67.67
2018-12-30T23:57:39.047Z,69.23
